Archbold, Ohio
Current Conditions -  °F | °C
As of 3:35 AM on Sunday 23 Nov 2014 (Local Time) from KUSE Reporting Station
Light Rain Light Rain  
Wind Chill: 40°   Ceiling: 7500
Heat Index: 45°   Visibility: 5mi
Dew Point: 43°   Wind: 8mph
Humidity: 93%   Direction: 200°SSW
Pressure: 29.97"   Gusts: NA
Location:  41.52°N, 84.31°W
Report Text: KUSE 230835Z AUTO 20007KT 5SM -RA SCT039 BKN075 OVC080 07/06 A2997 RMK AO2
Loading
Personal Weather Stations






























Interactive Weather Map New forecast layout! Learn more

10-Day Weather Forecast

Advertisements
Track Severe Weather on mobile